sensor_id;sensor_type;location;lat;lon;timestamp;P1;durP1;ratioP1;P2;durP2;ratioP2
6135;SDS011;24008;42.664;23.372;2024-03-17T00:00:24;16.67;;;8.60;;
6135;SDS011;24008;42.664;23.372;2024-03-17T00:02:53;19.50;;;8.73;;
6135;SDS011;24008;42.664;23.372;2024-03-17T00:05:19;18.30;;;9.10;;
6135;SDS011;24008;42.664;23.372;2024-03-17T00:07:47;18.27;;;8.93;;
6135;SDS011;24008;42.664;23.372;2024-03-17T00:10:13;16.93;;;9.00;;
6135;SDS011;24008;42.664;23.372;2024-03-17T00:12:40;17.67;;;7.93;;
6135;SDS011;24008;42.664;23.372;2024-03-17T00:15:06;13.73;;;7.73;;
6135;SDS011;24008;42.664;23.372;2024-03-17T00:17:34;16.50;;;7.80;;
6135;SDS011;24008;42.664;23.372;2024-03-17T00:20:00;14.07;;;7.60;;
6135;SDS011;24008;42.664;23.372;2024-03-17T00:22:33;10.13;;;6.20;;
6135;SDS011;24008;42.664;23.372;2024-03-17T00:25:04;12.23;;;6.63;;
6135;SDS011;24008;42.664;23.372;2024-03-17T00:27:31;16.10;;;7.47;;
6135;SDS011;24008;42.664;23.372;2024-03-17T00:29:57;16.13;;;7.93;;
6135;SDS011;24008;42.664;23.372;2024-03-17T00:32:24;13.27;;;6.97;;
6135;SDS011;24008;42.664;23.372;2024-03-17T00:34:49;16.23;;;7.07;;
6135;SDS011;24008;42.664;23.372;2024-03-17T00:37:16;11.43;;;5.80;;
6135;SDS011;24008;42.664;23.372;2024-03-17T00:39:42;14.07;;;6.93;;
6135;SDS011;24008;42.664;23.372;2024-03-17T00:42:10;13.00;;;7.33;;
6135;SDS011;24008;42.664;23.372;2024-03-17T00:44:37;16.67;;;7.47;;
6135;SDS011;24008;42.664;23.372;2024-03-17T00:47:04;12.23;;;7.00;;
6135;SDS011;24008;42.664;23.372;2024-03-17T00:49:30;10.90;;;6.50;;
6135;SDS011;24008;42.664;23.372;2024-03-17T00:51:56;13.67;;;7.60;;
6135;SDS011;24008;42.664;23.372;2024-03-17T00:54:22;16.33;;;8.67;;
6135;SDS011;24008;42.664;23.372;2024-03-17T00:56:49;13.00;;;7.27;;
6135;SDS011;24008;42.664;23.372;2024-03-17T00:59:16;11.23;;;7.67;;
6135;SDS011;24008;42.664;23.372;2024-03-17T01:01:42;16.00;;;8.07;;
6135;SDS011;24008;42.664;23.372;2024-03-17T01:04:09;19.90;;;8.63;;
6135;SDS011;24008;42.664;23.372;2024-03-17T01:06:36;13.20;;;6.87;;
6135;SDS011;24008;42.664;23.372;2024-03-17T01:09:03;16.40;;;7.40;;
6135;SDS011;24008;42.664;23.372;2024-03-17T01:11:30;15.87;;;8.27;;
6135;SDS011;24008;42.664;23.372;2024-03-17T01:13:56;14.37;;;8.33;;
6135;SDS011;24008;42.664;23.372;2024-03-17T01:16:26;15.53;;;8.30;;
6135;SDS011;24008;42.664;23.372;2024-03-17T01:18:52;14.67;;;8.07;;
6135;SDS011;24008;42.664;23.372;2024-03-17T01:21:19;24.23;;;11.23;;
6135;SDS011;24008;42.664;23.372;2024-03-17T01:23:45;17.57;;;8.70;;
6135;SDS011;24008;42.664;23.372;2024-03-17T01:26:13;19.63;;;9.37;;
6135;SDS011;24008;42.664;23.372;2024-03-17T01:28:39;16.87;;;9.20;;
6135;SDS011;24008;42.664;23.372;2024-03-17T01:31:06;20.23;;;8.73;;
6135;SDS011;24008;42.664;23.372;2024-03-17T01:33:33;17.37;;;8.87;;
6135;SDS011;24008;42.664;23.372;2024-03-17T01:36:00;17.37;;;8.60;;
6135;SDS011;24008;42.664;23.372;2024-03-17T01:38:26;12.00;;;7.23;;
6135;SDS011;24008;42.664;23.372;2024-03-17T01:40:52;12.90;;;8.27;;
6135;SDS011;24008;42.664;23.372;2024-03-17T01:43:18;15.17;;;8.57;;
6135;SDS011;24008;42.664;23.372;2024-03-17T01:45:45;18.30;;;7.80;;
6135;SDS011;24008;42.664;23.372;2024-03-17T01:48:12;12.90;;;8.17;;
6135;SDS011;24008;42.664;23.372;2024-03-17T01:50:43;14.73;;;8.13;;
6135;SDS011;24008;42.664;23.372;2024-03-17T01:53:11;13.07;;;7.90;;
6135;SDS011;24008;42.664;23.372;2024-03-17T01:55:42;12.50;;;7.13;;
6135;SDS011;24008;42.664;23.372;2024-03-17T01:58:09;13.47;;;7.33;;
6135;SDS011;24008;42.664;23.372;2024-03-17T02:00:36;13.80;;;7.43;;
6135;SDS011;24008;42.664;23.372;2024-03-17T02:03:03;17.67;;;8.03;;
6135;SDS011;24008;42.664;23.372;2024-03-17T02:05:31;13.43;;;7.43;;
6135;SDS011;24008;42.664;23.372;2024-03-17T02:07:58;11.87;;;6.97;;
6135;SDS011;24008;42.664;23.372;2024-03-17T02:10:25;18.77;;;8.50;;
6135;SDS011;24008;42.664;23.372;2024-03-17T02:12:50;14.40;;;7.37;;
6135;SDS011;24008;42.664;23.372;2024-03-17T02:15:17;16.07;;;8.00;;
6135;SDS011;24008;42.664;23.372;2024-03-17T02:17:43;17.07;;;7.60;;
6135;SDS011;24008;42.664;23.372;2024-03-17T02:20:10;15.47;;;7.93;;
6135;SDS011;24008;42.664;23.372;2024-03-17T02:22:37;16.20;;;8.23;;
6135;SDS011;24008;42.664;23.372;2024-03-17T02:25:05;12.70;;;7.30;;
6135;SDS011;24008;42.664;23.372;2024-03-17T02:27:33;13.87;;;7.90;;
6135;SDS011;24008;42.664;23.372;2024-03-17T02:30:00;15.27;;;8.50;;
6135;SDS011;24008;42.664;23.372;2024-03-17T02:32:25;16.00;;;7.63;;
6135;SDS011;24008;42.664;23.372;2024-03-17T02:34:52;14.13;;;7.97;;
6135;SDS011;24008;42.664;23.372;2024-03-17T02:37:19;16.00;;;7.57;;
6135;SDS011;24008;42.664;23.372;2024-03-17T02:39:48;17.13;;;8.57;;
6135;SDS011;24008;42.664;23.372;2024-03-17T02:42:14;14.90;;;7.57;;
6135;SDS011;24008;42.664;23.372;2024-03-17T02:44:40;14.80;;;7.63;;
6135;SDS011;24008;42.664;23.372;2024-03-17T02:47:07;16.77;;;8.17;;
6135;SDS011;24008;42.664;23.372;2024-03-17T02:49:35;16.87;;;7.67;;
6135;SDS011;24008;42.664;23.372;2024-03-17T02:52:05;16.60;;;8.67;;
6135;SDS011;24008;42.664;23.372;2024-03-17T02:54:32;13.50;;;7.80;;
6135;SDS011;24008;42.664;23.372;2024-03-17T02:57:01;14.13;;;6.83;;
6135;SDS011;24008;42.664;23.372;2024-03-17T02:59:28;25.37;;;8.90;;
6135;SDS011;24008;42.664;23.372;2024-03-17T03:01:56;14.33;;;7.23;;
6135;SDS011;24008;42.664;23.372;2024-03-17T03:04:23;16.83;;;8.10;;
6135;SDS011;24008;42.664;23.372;2024-03-17T03:06:50;16.70;;;8.03;;
6135;SDS011;24008;42.664;23.372;2024-03-17T03:09:16;16.40;;;8.27;;
6135;SDS011;24008;42.664;23.372;2024-03-17T03:11:50;15.17;;;7.57;;
6135;SDS011;24008;42.664;23.372;2024-03-17T03:14:19;14.27;;;7.93;;
6135;SDS011;24008;42.664;23.372;2024-03-17T03:16:46;14.27;;;7.83;;
6135;SDS011;24008;42.664;23.372;2024-03-17T03:19:14;19.03;;;8.37;;
6135;SDS011;24008;42.664;23.372;2024-03-17T03:21:41;14.53;;;7.67;;
6135;SDS011;24008;42.664;23.372;2024-03-17T03:24:08;14.77;;;7.60;;
6135;SDS011;24008;42.664;23.372;2024-03-17T03:26:34;15.93;;;7.37;;
6135;SDS011;24008;42.664;23.372;2024-03-17T03:29:01;20.53;;;7.97;;
6135;SDS011;24008;42.664;23.372;2024-03-17T03:31:30;22.77;;;9.47;;
6135;SDS011;24008;42.664;23.372;2024-03-17T03:33:57;16.30;;;7.90;;
6135;SDS011;24008;42.664;23.372;2024-03-17T03:36:26;14.90;;;7.30;;
6135;SDS011;24008;42.664;23.372;2024-03-17T03:38:53;16.23;;;8.03;;
6135;SDS011;24008;42.664;23.372;2024-03-17T03:41:22;13.87;;;7.70;;
6135;SDS011;24008;42.664;23.372;2024-03-17T03:43:50;16.83;;;7.93;;
6135;SDS011;24008;42.664;23.372;2024-03-17T03:46:17;14.80;;;7.03;;
6135;SDS011;24008;42.664;23.372;2024-03-17T03:48:45;16.07;;;8.30;;
6135;SDS011;24008;42.664;23.372;2024-03-17T03:51:11;17.17;;;8.80;;
6135;SDS011;24008;42.664;23.372;2024-03-17T03:53:39;16.03;;;8.10;;
6135;SDS011;24008;42.664;23.372;2024-03-17T03:56:07;15.77;;;7.00;;
6135;SDS011;24008;42.664;23.372;2024-03-17T03:58:35;12.30;;;7.20;;
6135;SDS011;24008;42.664;23.372;2024-03-17T04:01:03;13.43;;;6.93;;
6135;SDS011;24008;42.664;23.372;2024-03-17T04:03:30;13.43;;;7.30;;
6135;SDS011;24008;42.664;23.372;2024-03-17T04:06:03;14.17;;;8.13;;
6135;SDS011;24008;42.664;23.372;2024-03-17T04:08:50;15.93;;;8.60;;
6135;SDS011;24008;42.664;23.372;2024-03-17T04:11:37;16.63;;;8.77;;
6135;SDS011;24008;42.664;23.372;2024-03-17T04:14:24;17.03;;;8.30;;
6135;SDS011;24008;42.664;23.372;2024-03-17T04:17:11;13.40;;;8.00;;
6135;SDS011;24008;42.664;23.372;2024-03-17T04:19:58;18.30;;;8.47;;
6135;SDS011;24008;42.664;23.372;2024-03-17T04:22:47;16.07;;;7.87;;
6135;SDS011;24008;42.664;23.372;2024-03-17T04:25:34;17.47;;;8.13;;
6135;SDS011;24008;42.664;23.372;2024-03-17T04:28:01;16.23;;;7.53;;
6135;SDS011;24008;42.664;23.372;2024-03-17T04:30:28;19.13;;;8.23;;
6135;SDS011;24008;42.664;23.372;2024-03-17T04:32:54;13.60;;;7.60;;
6135;SDS011;24008;42.664;23.372;2024-03-17T04:35:21;16.47;;;8.20;;
6135;SDS011;24008;42.664;23.372;2024-03-17T04:37:49;16.27;;;8.13;;
6135;SDS011;24008;42.664;23.372;2024-03-17T04:40:16;15.23;;;8.83;;
6135;SDS011;24008;42.664;23.372;2024-03-17T04:42:44;15.67;;;8.73;;
6135;SDS011;24008;42.664;23.372;2024-03-17T04:45:14;18.53;;;8.37;;
6135;SDS011;24008;42.664;23.372;2024-03-17T04:47:40;17.20;;;8.17;;
6135;SDS011;24008;42.664;23.372;2024-03-17T04:50:07;15.00;;;7.33;;
6135;SDS011;24008;42.664;23.372;2024-03-17T04:52:35;15.70;;;7.80;;
6135;SDS011;24008;42.664;23.372;2024-03-17T04:55:03;17.37;;;9.07;;
6135;SDS011;24008;42.664;23.372;2024-03-17T04:57:30;12.63;;;7.87;;
6135;SDS011;24008;42.664;23.372;2024-03-17T04:59:57;18.13;;;8.97;;
6135;SDS011;24008;42.664;23.372;2024-03-17T05:02:24;14.47;;;7.93;;
6135;SDS011;24008;42.664;23.372;2024-03-17T05:04:50;17.23;;;7.83;;
6135;SDS011;24008;42.664;23.372;2024-03-17T05:07:18;18.20;;;7.77;;
6135;SDS011;24008;42.664;23.372;2024-03-17T05:09:45;10.70;;;6.37;;
6135;SDS011;24008;42.664;23.372;2024-03-17T05:12:13;12.40;;;7.23;;
6135;SDS011;24008;42.664;23.372;2024-03-17T05:14:39;17.33;;;8.17;;
6135;SDS011;24008;42.664;23.372;2024-03-17T05:17:06;14.23;;;7.70;;
6135;SDS011;24008;42.664;23.372;2024-03-17T05:19:33;18.23;;;8.00;;
6135;SDS011;24008;42.664;23.372;2024-03-17T05:22:00;15.90;;;7.53;;
6135;SDS011;24008;42.664;23.372;2024-03-17T05:24:26;16.90;;;7.60;;
6135;SDS011;24008;42.664;23.372;2024-03-17T05:26:53;16.37;;;8.57;;
6135;SDS011;24008;42.664;23.372;2024-03-17T05:29:21;13.80;;;7.00;;
6135;SDS011;24008;42.664;23.372;2024-03-17T05:31:48;20.50;;;7.87;;
6135;SDS011;24008;42.664;23.372;2024-03-17T05:34:15;16.67;;;7.17;;
6135;SDS011;24008;42.664;23.372;2024-03-17T05:36:41;15.87;;;8.00;;
6135;SDS011;24008;42.664;23.372;2024-03-17T05:39:08;14.83;;;7.77;;
6135;SDS011;24008;42.664;23.372;2024-03-17T05:41:35;14.77;;;7.87;;
6135;SDS011;24008;42.664;23.372;2024-03-17T05:44:01;16.27;;;8.70;;
6135;SDS011;24008;42.664;23.372;2024-03-17T05:46:30;19.17;;;9.30;;
6135;SDS011;24008;42.664;23.372;2024-03-17T05:48:57;19.33;;;8.60;;
6135;SDS011;24008;42.664;23.372;2024-03-17T05:51:24;14.17;;;7.23;;
6135;SDS011;24008;42.664;23.372;2024-03-17T05:53:53;13.47;;;8.03;;
6135;SDS011;24008;42.664;23.372;2024-03-17T05:56:21;16.17;;;9.40;;
6135;SDS011;24008;42.664;23.372;2024-03-17T05:58:48;17.60;;;8.70;;
6135;SDS011;24008;42.664;23.372;2024-03-17T06:01:15;20.13;;;9.43;;
6135;SDS011;24008;42.664;23.372;2024-03-17T06:03:43;18.03;;;9.47;;
6135;SDS011;24008;42.664;23.372;2024-03-17T06:06:10;18.10;;;9.27;;
6135;SDS011;24008;42.664;23.372;2024-03-17T06:08:37;16.37;;;8.77;;
6135;SDS011;24008;42.664;23.372;2024-03-17T06:11:04;14.90;;;8.33;;
6135;SDS011;24008;42.664;23.372;2024-03-17T06:13:31;14.57;;;8.60;;
6135;SDS011;24008;42.664;23.372;2024-03-17T06:15:58;16.47;;;8.17;;
6135;SDS011;24008;42.664;23.372;2024-03-17T06:18:26;16.47;;;8.90;;
6135;SDS011;24008;42.664;23.372;2024-03-17T06:20:55;16.53;;;8.80;;
6135;SDS011;24008;42.664;23.372;2024-03-17T06:23:23;18.53;;;8.97;;
6135;SDS011;24008;42.664;23.372;2024-03-17T06:25:52;22.00;;;8.97;;
6135;SDS011;24008;42.664;23.372;2024-03-17T06:28:19;13.83;;;7.87;;
6135;SDS011;24008;42.664;23.372;2024-03-17T06:30:47;14.80;;;8.17;;
6135;SDS011;24008;42.664;23.372;2024-03-17T06:33:22;12.20;;;7.53;;
6135;SDS011;24008;42.664;23.372;2024-03-17T06:35:48;14.00;;;7.83;;
6135;SDS011;24008;42.664;23.372;2024-03-17T06:38:17;15.93;;;8.77;;
6135;SDS011;24008;42.664;23.372;2024-03-17T06:40:47;16.20;;;8.33;;
6135;SDS011;24008;42.664;23.372;2024-03-17T06:43:15;14.37;;;7.63;;
6135;SDS011;24008;42.664;23.372;2024-03-17T06:45:42;14.40;;;7.80;;
6135;SDS011;24008;42.664;23.372;2024-03-17T06:48:09;15.23;;;8.13;;
6135;SDS011;24008;42.664;23.372;2024-03-17T06:50:37;14.50;;;7.30;;
6135;SDS011;24008;42.664;23.372;2024-03-17T06:53:06;17.40;;;8.10;;
6135;SDS011;24008;42.664;23.372;2024-03-17T06:55:35;14.93;;;8.60;;
6135;SDS011;24008;42.664;23.372;2024-03-17T06:58:01;15.47;;;8.33;;
6135;SDS011;24008;42.664;23.372;2024-03-17T07:00:29;18.53;;;8.60;;
6135;SDS011;24008;42.664;23.372;2024-03-17T07:02:56;17.10;;;9.23;;
6135;SDS011;24008;42.664;23.372;2024-03-17T07:05:22;19.13;;;9.87;;
6135;SDS011;24008;42.664;23.372;2024-03-17T07:07:49;18.60;;;10.17;;
6135;SDS011;24008;42.664;23.372;2024-03-17T07:10:16;16.50;;;9.33;;
6135;SDS011;24008;42.664;23.372;2024-03-17T07:12:45;17.67;;;10.43;;
6135;SDS011;24008;42.664;23.372;2024-03-17T07:15:12;17.87;;;10.13;;
6135;SDS011;24008;42.664;23.372;2024-03-17T07:17:39;21.27;;;10.63;;
6135;SDS011;24008;42.664;23.372;2024-03-17T07:20:06;19.97;;;10.20;;
6135;SDS011;24008;42.664;23.372;2024-03-17T07:22:38;16.67;;;9.00;;
6135;SDS011;24008;42.664;23.372;2024-03-17T07:25:05;15.80;;;9.40;;
6135;SDS011;24008;42.664;23.372;2024-03-17T07:27:32;19.63;;;10.40;;
6135;SDS011;24008;42.664;23.372;2024-03-17T07:30:00;18.80;;;10.57;;
6135;SDS011;24008;42.664;23.372;2024-03-17T07:32:27;21.20;;;10.43;;
6135;SDS011;24008;42.664;23.372;2024-03-17T07:34:54;19.13;;;10.50;;
6135;SDS011;24008;42.664;23.372;2024-03-17T07:37:21;18.07;;;9.77;;
6135;SDS011;24008;42.664;23.372;2024-03-17T07:39:47;17.93;;;9.50;;
6135;SDS011;24008;42.664;23.372;2024-03-17T07:42:14;16.53;;;9.23;;
6135;SDS011;24008;42.664;23.372;2024-03-17T07:44:43;15.70;;;8.37;;
6135;SDS011;24008;42.664;23.372;2024-03-17T07:47:11;16.10;;;8.73;;
6135;SDS011;24008;42.664;23.372;2024-03-17T07:49:38;13.97;;;8.23;;
6135;SDS011;24008;42.664;23.372;2024-03-17T07:52:05;17.97;;;9.27;;
6135;SDS011;24008;42.664;23.372;2024-03-17T07:54:32;16.97;;;9.27;;
6135;SDS011;24008;42.664;23.372;2024-03-17T07:57:00;18.60;;;9.47;;
6135;SDS011;24008;42.664;23.372;2024-03-17T07:59:27;16.00;;;7.97;;
6135;SDS011;24008;42.664;23.372;2024-03-17T08:01:54;13.87;;;7.60;;
6135;SDS011;24008;42.664;23.372;2024-03-17T08:04:23;13.13;;;7.47;;
6135;SDS011;24008;42.664;23.372;2024-03-17T08:06:50;12.53;;;6.87;;
6135;SDS011;24008;42.664;23.372;2024-03-17T08:09:17;12.13;;;7.03;;
6135;SDS011;24008;42.664;23.372;2024-03-17T08:11:43;11.87;;;7.03;;
6135;SDS011;24008;42.664;23.372;2024-03-17T08:14:12;11.03;;;5.90;;
6135;SDS011;24008;42.664;23.372;2024-03-17T08:16:39;12.03;;;5.87;;
6135;SDS011;24008;42.664;23.372;2024-03-17T08:19:06;10.93;;;6.17;;
6135;SDS011;24008;42.664;23.372;2024-03-17T08:21:35;8.90;;;5.50;;
6135;SDS011;24008;42.664;23.372;2024-03-17T08:24:02;9.93;;;5.43;;
6135;SDS011;24008;42.664;23.372;2024-03-17T08:26:29;10.63;;;5.90;;
6135;SDS011;24008;42.664;23.372;2024-03-17T08:28:56;9.97;;;5.80;;
6135;SDS011;24008;42.664;23.372;2024-03-17T08:31:23;7.07;;;5.10;;
6135;SDS011;24008;42.664;23.372;2024-03-17T08:33:50;11.00;;;5.37;;
6135;SDS011;24008;42.664;23.372;2024-03-17T08:36:17;8.67;;;5.43;;
6135;SDS011;24008;42.664;23.372;2024-03-17T08:38:47;10.73;;;5.80;;
6135;SDS011;24008;42.664;23.372;2024-03-17T08:41:14;11.37;;;5.60;;
6135;SDS011;24008;42.664;23.372;2024-03-17T08:44:00;8.67;;;5.17;;
6135;SDS011;24008;42.664;23.372;2024-03-17T08:46:27;9.90;;;5.10;;
6135;SDS011;24008;42.664;23.372;2024-03-17T08:48:54;8.87;;;5.30;;
6135;SDS011;24008;42.664;23.372;2024-03-17T08:51:20;11.47;;;5.70;;
6135;SDS011;24008;42.664;23.372;2024-03-17T08:53:49;7.57;;;4.63;;
6135;SDS011;24008;42.664;23.372;2024-03-17T08:56:17;7.33;;;4.87;;
6135;SDS011;24008;42.664;23.372;2024-03-17T08:58:45;8.13;;;5.07;;
6135;SDS011;24008;42.664;23.372;2024-03-17T09:01:13;8.33;;;4.70;;
6135;SDS011;24008;42.664;23.372;2024-03-17T09:03:41;8.17;;;4.80;;
6135;SDS011;24008;42.664;23.372;2024-03-17T09:06:13;10.13;;;5.63;;
6135;SDS011;24008;42.664;23.372;2024-03-17T09:08:42;11.13;;;5.97;;
6135;SDS011;24008;42.664;23.372;2024-03-17T09:11:11;11.13;;;5.93;;
6135;SDS011;24008;42.664;23.372;2024-03-17T09:13:39;8.67;;;5.40;;
6135;SDS011;24008;42.664;23.372;2024-03-17T09:16:06;8.97;;;5.07;;
6135;SDS011;24008;42.664;23.372;2024-03-17T09:18:36;9.83;;;5.33;;
6135;SDS011;24008;42.664;23.372;2024-03-17T09:21:03;9.03;;;5.20;;
6135;SDS011;24008;42.664;23.372;2024-03-17T09:23:32;8.70;;;5.30;;
6135;SDS011;24008;42.664;23.372;2024-03-17T09:26:01;10.27;;;5.53;;
6135;SDS011;24008;42.664;23.372;2024-03-17T09:28:31;6.53;;;4.33;;
6135;SDS011;24008;42.664;23.372;2024-03-17T09:30:58;7.50;;;4.22;;
6135;SDS011;24008;42.664;23.372;2024-03-17T09:33:26;9.33;;;5.27;;
6135;SDS011;24008;42.664;23.372;2024-03-17T09:35:55;9.57;;;4.83;;
6135;SDS011;24008;42.664;23.372;2024-03-17T09:38:22;7.67;;;4.43;;
6135;SDS011;24008;42.664;23.372;2024-03-17T09:40:49;7.83;;;4.57;;
6135;SDS011;24008;42.664;23.372;2024-03-17T09:43:18;7.17;;;4.20;;
6135;SDS011;24008;42.664;23.372;2024-03-17T09:45:46;10.57;;;5.00;;
6135;SDS011;24008;42.664;23.372;2024-03-17T09:48:14;8.17;;;5.03;;
6135;SDS011;24008;42.664;23.372;2024-03-17T09:50:43;8.50;;;4.93;;
6135;SDS011;24008;42.664;23.372;2024-03-17T09:53:16;6.23;;;3.73;;
6135;SDS011;24008;42.664;23.372;2024-03-17T09:55:44;7.83;;;4.53;;
6135;SDS011;24008;42.664;23.372;2024-03-17T09:58:14;7.47;;;4.00;;
6135;SDS011;24008;42.664;23.372;2024-03-17T10:00:42;8.23;;;4.30;;
6135;SDS011;24008;42.664;23.372;2024-03-17T10:03:11;8.00;;;4.00;;
6135;SDS011;24008;42.664;23.372;2024-03-17T10:05:37;7.43;;;4.50;;
6135;SDS011;24008;42.664;23.372;2024-03-17T10:08:05;5.77;;;3.80;;
6135;SDS011;24008;42.664;23.372;2024-03-17T10:10:33;5.80;;;3.23;;
6135;SDS011;24008;42.664;23.372;2024-03-17T10:13:00;3.83;;;2.37;;
6135;SDS011;24008;42.664;23.372;2024-03-17T10:15:27;6.10;;;3.27;;
6135;SDS011;24008;42.664;23.372;2024-03-17T10:17:54;6.17;;;3.33;;
6135;SDS011;24008;42.664;23.372;2024-03-17T10:20:23;5.83;;;3.40;;
6135;SDS011;24008;42.664;23.372;2024-03-17T10:23:01;5.53;;;3.17;;
6135;SDS011;24008;42.664;23.372;2024-03-17T10:25:29;4.97;;;2.37;;
6135;SDS011;24008;42.664;23.372;2024-03-17T10:27:57;4.17;;;2.40;;
6135;SDS011;24008;42.664;23.372;2024-03-17T10:30:24;3.73;;;2.33;;
6135;SDS011;24008;42.664;23.372;2024-03-17T10:32:53;4.13;;;2.27;;
6135;SDS011;24008;42.664;23.372;2024-03-17T10:35:27;4.03;;;2.40;;
6135;SDS011;24008;42.664;23.372;2024-03-17T10:37:56;4.77;;;3.07;;
6135;SDS011;24008;42.664;23.372;2024-03-17T10:40:24;5.60;;;3.47;;
6135;SDS011;24008;42.664;23.372;2024-03-17T10:42:52;6.97;;;3.20;;
6135;SDS011;24008;42.664;23.372;2024-03-17T10:45:18;4.27;;;2.83;;
6135;SDS011;24008;42.664;23.372;2024-03-17T10:47:47;5.33;;;3.00;;
6135;SDS011;24008;42.664;23.372;2024-03-17T10:50:17;4.27;;;2.67;;
6135;SDS011;24008;42.664;23.372;2024-03-17T10:52:47;5.47;;;2.87;;
6135;SDS011;24008;42.664;23.372;2024-03-17T10:55:21;4.37;;;2.60;;
6135;SDS011;24008;42.664;23.372;2024-03-17T10:57:50;2.77;;;1.80;;
6135;SDS011;24008;42.664;23.372;2024-03-17T11:00:17;3.27;;;1.83;;
6135;SDS011;24008;42.664;23.372;2024-03-17T11:02:47;2.80;;;1.70;;
6135;SDS011;24008;42.664;23.372;2024-03-17T11:05:17;3.87;;;2.20;;
6135;SDS011;24008;42.664;23.372;2024-03-17T11:07:48;2.47;;;1.63;;
6135;SDS011;24008;42.664;23.372;2024-03-17T11:10:19;2.77;;;1.60;;
6135;SDS011;24008;42.664;23.372;2024-03-17T11:12:47;3.07;;;1.50;;
6135;SDS011;24008;42.664;23.372;2024-03-17T11:21:18;3.30;;;2.10;;
6135;SDS011;24008;42.664;23.372;2024-03-17T11:23:58;2.00;;;1.60;;
6135;SDS011;24008;42.664;23.372;2024-03-17T11:26:27;2.87;;;1.70;;
6135;SDS011;24008;42.664;23.372;2024-03-17T11:28:58;3.73;;;1.77;;
6135;SDS011;24008;42.664;23.372;2024-03-17T11:31:39;3.57;;;2.17;;
6135;SDS011;24008;42.664;23.372;2024-03-17T11:34:07;3.83;;;2.03;;
6135;SDS011;24008;42.664;23.372;2024-03-17T11:36:53;3.47;;;2.30;;
6135;SDS011;24008;42.664;23.372;2024-03-17T11:39:21;5.70;;;2.73;;
6135;SDS011;24008;42.664;23.372;2024-03-17T11:42:24;5.63;;;3.00;;
6135;SDS011;24008;42.664;23.372;2024-03-17T11:44:58;3.80;;;2.07;;
6135;SDS011;24008;42.664;23.372;2024-03-17T11:47:34;6.17;;;2.80;;
6135;SDS011;24008;42.664;23.372;2024-03-17T11:50:05;3.77;;;2.30;;
6135;SDS011;24008;42.664;23.372;2024-03-17T11:52:35;3.10;;;1.90;;
6135;SDS011;24008;42.664;23.372;2024-03-17T11:55:03;4.13;;;2.37;;
6135;SDS011;24008;42.664;23.372;2024-03-17T11:57:30;3.00;;;1.87;;
6135;SDS011;24008;42.664;23.372;2024-03-17T11:59:56;4.43;;;2.37;;
6135;SDS011;24008;42.664;23.372;2024-03-17T12:02:24;3.07;;;2.00;;
6135;SDS011;24008;42.664;23.372;2024-03-17T12:04:51;3.10;;;2.17;;
6135;SDS011;24008;42.664;23.372;2024-03-17T12:07:19;3.60;;;1.80;;
6135;SDS011;24008;42.664;23.372;2024-03-17T12:09:48;3.50;;;1.93;;
6135;SDS011;24008;42.664;23.372;2024-03-17T12:12:18;3.53;;;2.20;;
6135;SDS011;24008;42.664;23.372;2024-03-17T12:14:45;3.83;;;2.33;;
6135;SDS011;24008;42.664;23.372;2024-03-17T12:17:13;4.83;;;2.30;;
6135;SDS011;24008;42.664;23.372;2024-03-17T12:19:39;4.53;;;2.30;;
6135;SDS011;24008;42.664;23.372;2024-03-17T12:22:09;2.43;;;1.90;;
6135;SDS011;24008;42.664;23.372;2024-03-17T12:24:43;3.90;;;2.10;;
6135;SDS011;24008;42.664;23.372;2024-03-17T12:27:15;4.07;;;2.20;;
6135;SDS011;24008;42.664;23.372;2024-03-17T12:29:44;3.60;;;2.20;;
6135;SDS011;24008;42.664;23.372;2024-03-17T12:32:12;2.73;;;1.83;;
6135;SDS011;24008;42.664;23.372;2024-03-17T12:34:39;3.43;;;1.90;;
6135;SDS011;24008;42.664;23.372;2024-03-17T12:37:07;3.20;;;1.93;;
6135;SDS011;24008;42.664;23.372;2024-03-17T12:39:52;3.57;;;2.10;;
6135;SDS011;24008;42.664;23.372;2024-03-17T12:42:22;4.53;;;2.70;;
6135;SDS011;24008;42.664;23.372;2024-03-17T12:44:49;3.87;;;2.20;;
6135;SDS011;24008;42.664;23.372;2024-03-17T12:47:17;3.90;;;2.30;;
6135;SDS011;24008;42.664;23.372;2024-03-17T12:49:44;3.63;;;2.03;;
6135;SDS011;24008;42.664;23.372;2024-03-17T12:52:16;4.70;;;2.50;;
6135;SDS011;24008;42.664;23.372;2024-03-17T12:54:44;3.63;;;2.30;;
6135;SDS011;24008;42.664;23.372;2024-03-17T12:57:19;3.47;;;2.30;;
6135;SDS011;24008;42.664;23.372;2024-03-17T13:00:17;2.90;;;2.00;;
6135;SDS011;24008;42.664;23.372;2024-03-17T13:02:59;3.30;;;2.33;;
6135;SDS011;24008;42.664;23.372;2024-03-17T13:05:27;3.93;;;2.53;;
6135;SDS011;24008;42.664;23.372;2024-03-17T13:07:53;4.47;;;2.70;;
6135;SDS011;24008;42.664;23.372;2024-03-17T13:10:22;5.13;;;2.67;;
6135;SDS011;24008;42.664;23.372;2024-03-17T13:12:58;7.33;;;2.70;;
6135;SDS011;24008;42.664;23.372;2024-03-17T13:15:26;4.87;;;2.67;;
6135;SDS011;24008;42.664;23.372;2024-03-17T13:17:54;4.90;;;2.83;;
6135;SDS011;24008;42.664;23.372;2024-03-17T13:20:21;5.00;;;2.90;;
6135;SDS011;24008;42.664;23.372;2024-03-17T13:22:48;4.70;;;2.77;;
6135;SDS011;24008;42.664;23.372;2024-03-17T13:25:15;4.27;;;2.77;;
6135;SDS011;24008;42.664;23.372;2024-03-17T13:27:43;3.97;;;2.57;;
6135;SDS011;24008;42.664;23.372;2024-03-17T13:30:12;5.37;;;3.40;;
6135;SDS011;24008;42.664;23.372;2024-03-17T13:32:39;4.13;;;2.97;;
6135;SDS011;24008;42.664;23.372;2024-03-17T13:35:13;5.10;;;2.90;;
6135;SDS011;24008;42.664;23.372;2024-03-17T13:37:41;3.93;;;2.83;;
6135;SDS011;24008;42.664;23.372;2024-03-17T13:40:08;7.50;;;3.03;;
6135;SDS011;24008;42.664;23.372;2024-03-17T13:42:37;6.67;;;3.73;;
6135;SDS011;24008;42.664;23.372;2024-03-17T13:45:05;4.90;;;3.07;;
6135;SDS011;24008;42.664;23.372;2024-03-17T13:47:37;6.20;;;3.37;;
6135;SDS011;24008;42.664;23.372;2024-03-17T13:50:04;5.37;;;3.43;;
6135;SDS011;24008;42.664;23.372;2024-03-17T13:52:36;5.07;;;3.30;;
6135;SDS011;24008;42.664;23.372;2024-03-17T13:55:03;5.17;;;3.20;;
6135;SDS011;24008;42.664;23.372;2024-03-17T13:57:31;6.23;;;3.53;;
6135;SDS011;24008;42.664;23.372;2024-03-17T13:59:58;6.33;;;3.73;;
6135;SDS011;24008;42.664;23.372;2024-03-17T14:02:25;6.13;;;3.00;;
6135;SDS011;24008;42.664;23.372;2024-03-17T14:04:53;5.57;;;3.27;;
6135;SDS011;24008;42.664;23.372;2024-03-17T14:07:20;4.93;;;3.10;;
6135;SDS011;24008;42.664;23.372;2024-03-17T14:09:47;6.60;;;3.53;;
6135;SDS011;24008;42.664;23.372;2024-03-17T14:12:13;6.07;;;3.43;;
6135;SDS011;24008;42.664;23.372;2024-03-17T14:14:41;6.47;;;3.30;;
6135;SDS011;24008;42.664;23.372;2024-03-17T14:17:08;6.80;;;4.20;;
6135;SDS011;24008;42.664;23.372;2024-03-17T14:19:34;6.57;;;3.80;;
6135;SDS011;24008;42.664;23.372;2024-03-17T14:22:03;5.63;;;3.57;;
6135;SDS011;24008;42.664;23.372;2024-03-17T14:24:30;6.13;;;3.77;;
6135;SDS011;24008;42.664;23.372;2024-03-17T14:26:57;6.50;;;3.50;;
6135;SDS011;24008;42.664;23.372;2024-03-17T14:29:23;6.43;;;3.50;;
6135;SDS011;24008;42.664;23.372;2024-03-17T14:31:50;6.77;;;3.70;;
6135;SDS011;24008;42.664;23.372;2024-03-17T14:34:17;6.17;;;3.33;;
6135;SDS011;24008;42.664;23.372;2024-03-17T14:36:43;4.73;;;3.20;;
6135;SDS011;24008;42.664;23.372;2024-03-17T14:39:11;7.47;;;4.27;;
6135;SDS011;24008;42.664;23.372;2024-03-17T14:41:38;6.27;;;3.57;;
6135;SDS011;24008;42.664;23.372;2024-03-17T14:44:05;6.87;;;3.57;;
6135;SDS011;24008;42.664;23.372;2024-03-17T14:46:32;5.17;;;2.97;;
6135;SDS011;24008;42.664;23.372;2024-03-17T14:48:59;5.90;;;3.53;;
6135;SDS011;24008;42.664;23.372;2024-03-17T14:51:26;8.00;;;3.67;;
6135;SDS011;24008;42.664;23.372;2024-03-17T14:53:53;6.80;;;3.60;;